Time;durP1;ratioP1;P1;durP2;ratioP2;P2;SDS_P1;SDS_P2;PMS_P1;PMS_P2;Temp;Humidity;BMP_temperature;BMP_pressure;BME280_temperature;BME280_humidity;BME280_pressure;Samples;Min_cycle;Max_cycle;Signal;HPM_P1;HPM_P2
2024/04/14 00:02:15;;;;;;;;;;;16.10;99.90;;;15.22;100.00;98311.75;5420370;26;2769;-69
2024/04/14 00:04:48;;;;;;;;;;;16.00;99.90;;;15.27;100.00;98316.78;5429788;26;2738;-69
2024/04/14 00:07:18;;;;;;;;;;;16.00;99.90;;;15.36;100.00;98315.47;5430231;26;1858;-68
2024/04/14 00:09:45;;;;;;;;;;;16.00;99.90;;;15.25;100.00;98308.16;5432168;26;1882;-69
2024/04/14 00:12:12;;;;;;;;;;;16.00;99.90;;;15.20;100.00;98310.16;5423770;26;1871;-69
2024/04/14 00:14:39;;;;;;;;;;;16.00;99.90;;;15.11;100.00;98308.84;5426387;26;1930;-69
2024/04/14 00:17:06;;;;;;;;;;;16.00;99.90;;;15.13;100.00;98304.38;5435220;26;1897;-69
2024/04/14 00:19:32;;;;;;;;;;;15.90;99.90;;;15.20;100.00;98305.75;5428905;26;3910;-68
2024/04/14 00:22:00;;;;;;;;;;;15.90;99.90;;;15.32;100.00;98304.31;5432304;26;1783;-68
2024/04/14 00:24:27;;;;;;;;;;;15.90;99.90;;;15.19;100.00;98303.22;5428110;26;2929;-69
2024/04/14 00:26:54;;;;;;;;;;;15.90;99.90;;;15.31;100.00;98296.56;5425677;26;2750;-69
2024/04/14 00:29:21;;;;;;;;;;;16.00;99.90;;;15.17;100.00;98298.09;5427072;26;1880;-69
2024/04/14 00:31:47;;;;;;;;;;;15.90;99.90;;;14.94;100.00;98298.34;5429072;26;1890;-69
2024/04/14 00:34:14;;;;;;;;;;;15.80;99.90;;;15.00;100.00;98298.91;5423439;26;2100;-69
2024/04/14 00:36:42;;;;;;;;;;;15.70;99.90;;;14.96;100.00;98300.00;5428488;26;1890;-69
2024/04/14 00:39:12;;;;;;;;;;;15.70;99.90;;;15.00;100.00;98303.28;5432081;26;2236;-69
2024/04/14 00:41:39;;;;;;;;;;;15.70;99.90;;;14.99;100.00;98302.44;5434529;26;1859;-69
2024/04/14 00:44:06;;;;;;;;;;;15.80;99.90;;;14.92;100.00;98300.22;5431085;26;1827;-69
2024/04/14 00:46:33;;;;;;;;;;;15.70;99.90;;;14.94;100.00;98299.22;5432461;26;1762;-69
2024/04/14 00:49:02;;;;;;;;;;;15.70;99.90;;;15.11;100.00;98303.59;5429207;26;1877;-69
2024/04/14 00:51:29;;;;;;;;;;;15.70;99.90;;;15.01;100.00;98299.75;5431022;26;1891;-68
2024/04/14 00:53:56;;;;;;;;;;;15.70;99.90;;;15.02;100.00;98297.06;5458048;26;2217;-69
2024/04/14 00:56:23;;;;;;;;;;;15.70;99.90;;;14.95;100.00;98294.81;5401499;26;2179;-69
2024/04/14 00:58:50;;;;;;;;;;;15.70;99.90;;;14.88;100.00;98303.91;5432331;26;1728;-69
2024/04/14 01:01:18;;;;;;;;;;;15.60;99.90;;;14.83;100.00;98297.13;5437373;26;1897;-68
2024/04/14 01:03:45;;;;;;;;;;;15.60;99.90;;;14.80;100.00;98299.00;5431903;26;1912;-69
2024/04/14 01:06:12;;;;;;;;;;;15.60;99.90;;;14.95;100.00;98303.50;5435834;26;1589;-69
2024/04/14 01:08:39;;;;;;;;;;;15.60;99.90;;;15.02;100.00;98306.69;5435879;26;3945;-69
2024/04/14 01:11:06;;;;;;;;;;;15.70;99.90;;;14.90;100.00;98307.28;5432145;26;1833;-69
2024/04/14 01:13:33;;;;;;;;;;;15.70;99.90;;;14.84;100.00;98306.63;5429302;26;1372;-69
2024/04/14 01:15:59;;;;;;;;;;;15.70;99.90;;;14.96;100.00;98296.50;5429546;26;1878;-69
2024/04/14 01:18:26;;;;;;;;;;;15.70;99.90;;;14.95;100.00;98297.44;5412197;26;1462;-69
2024/04/14 01:20:53;;;;;;;;;;;15.70;99.90;;;14.96;100.00;98304.34;5432954;26;1386;-69
2024/04/14 01:23:20;;;;;;;;;;;15.70;99.90;;;14.91;100.00;98294.13;5402194;26;2289;-69
2024/04/14 01:25:47;;;;;;;;;;;15.70;99.90;;;14.87;100.00;98292.59;5436119;26;1420;-69
2024/04/14 01:28:16;;;;;;;;;;;15.60;99.90;;;14.75;100.00;98298.41;5432964;26;1868;-69
2024/04/14 01:30:43;;;;;;;;;;;15.60;99.90;;;14.79;100.00;98295.56;5431778;26;1535;-69
2024/04/14 01:33:10;;;;;;;;;;;15.60;99.90;;;14.81;100.00;98303.34;5430374;26;1427;-69
2024/04/14 01:35:37;;;;;;;;;;;15.60;99.90;;;14.83;100.00;98297.13;5433519;26;1900;-69
2024/04/14 01:38:04;;;;;;;;;;;15.60;99.90;;;14.79;100.00;98294.72;5428735;26;1459;-69
2024/04/14 01:40:45;;;;;;;;;;;15.60;99.90;;;14.64;100.00;98297.16;5432848;26;1641;-69
2024/04/14 01:43:11;;;;;;;;;;;15.50;99.90;;;14.58;100.00;98313.13;5438029;26;1457;-69
2024/04/14 01:45:38;;;;;;;;;;;15.40;99.90;;;14.61;100.00;98299.06;5436813;26;1475;-69
2024/04/14 01:48:07;;;;;;;;;;;15.50;99.90;;;14.63;100.00;98298.06;5430427;26;1415;-69
2024/04/14 01:50:36;;;;;;;;;;;15.50;99.90;;;14.61;100.00;98294.66;5432996;26;3968;-69
2024/04/14 01:53:04;;;;;;;;;;;15.40;99.90;;;14.55;100.00;98294.13;5427218;26;1635;-69
2024/04/14 01:55:31;;;;;;;;;;;15.40;99.90;;;14.55;100.00;98292.38;5432185;26;1907;-69
2024/04/14 01:57:59;;;;;;;;;;;15.40;99.90;;;14.49;100.00;98287.41;5430153;26;1371;-69
2024/04/14 02:00:26;;;;;;;;;;;15.40;99.90;;;14.44;100.00;98292.84;5429765;26;1335;-69
2024/04/14 02:02:55;;;;;;;;;;;15.30;99.90;;;14.42;100.00;98296.44;5427722;26;1655;-69
2024/04/14 02:05:23;;;;;;;;;;;15.20;99.90;;;14.32;100.00;98300.38;5432923;26;2131;-69
2024/04/14 02:07:50;;;;;;;;;;;15.20;99.90;;;14.35;100.00;98297.66;5430504;26;1625;-69
2024/04/14 02:10:16;;;;;;;;;;;15.20;99.90;;;14.34;100.00;98303.78;5433138;26;1499;-69
2024/04/14 02:12:43;;;;;;;;;;;15.10;99.90;;;14.18;100.00;98314.06;5428209;26;1398;-69
2024/04/14 02:15:10;;;;;;;;;;;15.10;99.90;;;14.32;100.00;98305.59;5428823;26;1467;-68
2024/04/14 02:17:37;;;;;;;;;;;15.00;99.90;;;14.15;100.00;98314.22;5436819;26;1837;-69
2024/04/14 02:20:05;;;;;;;;;;;15.00;99.90;;;14.07;100.00;98308.50;5428470;26;2423;-69
2024/04/14 02:22:31;;;;;;;;;;;14.90;99.90;;;13.99;100.00;98316.66;5431737;26;1420;-69
2024/04/14 02:24:58;;;;;;;;;;;14.90;99.90;;;14.01;100.00;98320.91;5431837;26;2633;-69
2024/04/14 02:27:25;;;;;;;;;;;14.80;99.90;;;14.02;100.00;98327.81;5437036;26;1400;-69
2024/04/14 02:29:52;;;;;;;;;;;14.80;99.90;;;13.96;100.00;98337.69;5431721;26;1570;-69
2024/04/14 02:32:19;;;;;;;;;;;14.80;99.90;;;13.81;100.00;98334.81;5434072;26;1479;-69
2024/04/14 02:34:46;;;;;;;;;;;14.70;99.90;;;13.74;100.00;98333.41;5434886;26;1567;-69
2024/04/14 02:37:13;;;;;;;;;;;14.60;99.90;;;13.75;100.00;98329.91;5431193;26;1890;-68
2024/04/14 02:39:40;;;;;;;;;;;14.50;99.90;;;13.73;100.00;98329.13;5435759;26;3701;-69
2024/04/14 02:42:07;;;;;;;;;;;14.50;99.90;;;13.79;100.00;98341.03;5436223;26;1647;-69
2024/04/14 02:44:34;;;;;;;;;;;14.50;99.90;;;13.76;100.00;98336.78;5432630;26;1416;-69
2024/04/14 02:47:01;;;;;;;;;;;14.50;99.90;;;13.72;100.00;98339.59;5432605;26;1463;-69
2024/04/14 02:49:28;;;;;;;;;;;14.50;99.90;;;13.60;100.00;98335.75;5429504;26;1439;-69
2024/04/14 02:51:56;;;;;;;;;;;14.50;99.90;;;13.65;100.00;98341.63;5436088;26;1553;-69
2024/04/14 02:54:23;;;;;;;;;;;14.50;99.90;;;13.59;100.00;98341.88;5427934;26;2541;-69
2024/04/14 02:56:50;;;;;;;;;;;14.40;99.90;;;13.65;100.00;98340.78;5433392;26;1888;-69
2024/04/14 02:59:17;;;;;;;;;;;14.30;99.90;;;13.47;100.00;98345.84;5433476;26;1561;-69
2024/04/14 03:01:45;;;;;;;;;;;14.30;99.90;;;13.46;100.00;98349.41;5425353;26;1296;-69
2024/04/14 03:04:12;;;;;;;;;;;14.20;99.90;;;13.47;100.00;98350.22;5431484;26;1464;-69
2024/04/14 03:06:40;;;;;;;;;;;;;;;13.42;100.00;98360.00;5432244;26;2132;-68
2024/04/14 03:09:07;;;;;;;;;;;14.10;99.90;;;13.34;100.00;98361.19;5431306;26;2741;-69
2024/04/14 03:11:33;;;;;;;;;;;14.10;99.90;;;13.31;100.00;98360.44;5427879;26;2934;-69
2024/04/14 03:14:00;;;;;;;;;;;14.00;99.90;;;13.34;100.00;98368.13;5427038;26;1348;-69
2024/04/14 03:16:27;;;;;;;;;;;14.00;99.90;;;13.23;100.00;98370.28;5433310;26;1860;-69
2024/04/14 03:18:54;;;;;;;;;;;13.90;99.90;;;13.18;100.00;98371.34;5439156;26;1426;-69
2024/04/14 03:21:22;;;;;;;;;;;13.90;99.90;;;13.05;100.00;98362.34;5430262;26;1406;-69
2024/04/14 03:23:50;;;;;;;;;;;13.80;99.90;;;13.04;100.00;98362.38;5427052;26;3766;-69
2024/04/14 03:26:17;;;;;;;;;;;13.80;99.90;;;12.97;100.00;98375.66;5434693;26;1455;-69
2024/04/14 03:28:44;;;;;;;;;;;13.80;99.90;;;12.88;100.00;98378.63;5429998;26;1487;-69
2024/04/14 03:31:11;;;;;;;;;;;13.80;99.90;;;12.74;100.00;98386.13;5430307;26;1502;-69
2024/04/14 03:33:38;;;;;;;;;;;;;;;12.71;100.00;98387.09;5433406;26;1486;-69
2024/04/14 03:36:06;;;;;;;;;;;13.60;99.90;;;12.73;100.00;98394.88;5431309;26;2251;-69
2024/04/14 03:38:34;;;;;;;;;;;13.50;99.90;;;12.74;100.00;98389.56;5428266;26;2565;-68
2024/04/14 03:41:01;;;;;;;;;;;13.40;99.90;;;12.70;100.00;98397.56;5429971;26;1487;-70
2024/04/14 03:43:28;;;;;;;;;;;13.40;99.90;;;12.62;100.00;98404.84;5426299;26;1598;-70
2024/04/14 03:45:55;;;;;;;;;;;13.40;99.90;;;12.62;100.00;98397.03;5427161;26;1360;-68
2024/04/14 03:48:23;;;;;;;;;;;13.40;99.90;;;12.64;100.00;98401.25;5430330;26;1498;-68
2024/04/14 03:50:50;;;;;;;;;;;13.50;99.90;;;12.66;100.00;98399.44;5431251;26;2213;-68
2024/04/14 03:53:17;;;;;;;;;;;13.50;99.90;;;12.64;100.00;98403.88;5428609;26;1565;-68
2024/04/14 03:55:44;;;;;;;;;;;13.50;99.90;;;12.56;100.00;98409.34;5427696;26;1524;-68
2024/04/14 03:58:10;;;;;;;;;;;13.50;99.90;;;12.52;100.00;98412.13;5426971;26;1833;-68
2024/04/14 04:00:37;;;;;;;;;;;13.50;99.90;;;12.57;100.00;98410.22;5425670;26;1527;-68
2024/04/14 04:03:05;;;;;;;;;;;13.50;99.90;;;12.49;100.00;98412.25;5427359;26;1408;-68
2024/04/14 04:05:31;;;;;;;;;;;13.40;99.90;;;12.49;100.00;98417.44;5425543;26;3956;-68
2024/04/14 04:07:58;;;;;;;;;;;13.40;99.90;;;12.46;100.00;98421.03;5431494;26;1813;-70
2024/04/14 04:10:25;;;;;;;;;;;13.40;99.90;;;12.34;100.00;98422.31;5428711;26;1625;-70
2024/04/14 04:12:52;;;;;;;;;;;13.40;99.90;;;12.37;100.00;98423.13;5426603;26;1217;-70
2024/04/14 04:15:19;;;;;;;;;;;13.30;99.90;;;12.40;100.00;98421.25;5432508;26;1382;-70
2024/04/14 04:17:46;;;;;;;;;;;13.30;99.90;;;12.32;100.00;98431.94;5434642;26;1833;-70
2024/04/14 04:20:13;;;;;;;;;;;13.30;99.90;;;12.20;100.00;98434.13;5427418;26;2573;-70
2024/04/14 04:22:40;;;;;;;;;;;13.30;99.90;;;12.21;100.00;98443.66;5431887;26;1433;-69
2024/04/14 04:25:06;;;;;;;;;;;13.20;99.90;;;12.24;100.00;98444.38;5426323;26;2738;-70
2024/04/14 04:27:33;;;;;;;;;;;13.20;99.90;;;12.24;100.00;98438.31;5399064;26;1096;-70
2024/04/14 04:30:00;;;;;;;;;;;13.10;99.90;;;12.23;100.00;98432.28;5434942;26;1350;-70
2024/04/14 04:32:27;;;;;;;;;;;13.10;99.90;;;12.14;100.00;98449.06;5422408;26;1087;-70
2024/04/14 04:34:55;;;;;;;;;;;13.10;99.90;;;12.10;100.00;98447.47;5436078;26;1360;-70
2024/04/14 04:37:22;;;;;;;;;;;13.00;99.90;;;12.17;100.00;98455.91;5433103;26;1900;-70
2024/04/14 04:39:48;;;;;;;;;;;13.00;99.90;;;12.27;100.00;98448.63;5431197;26;2124;-70
2024/04/14 04:42:15;;;;;;;;;;;13.10;99.90;;;12.26;100.00;98445.16;5429905;26;1102;-70
2024/04/14 04:44:42;;;;;;;;;;;13.10;99.90;;;12.24;100.00;98443.53;5429383;26;1339;-68
2024/04/14 04:47:09;;;;;;;;;;;13.10;99.90;;;12.18;100.00;98444.59;5428628;26;1166;-70
2024/04/14 04:49:36;;;;;;;;;;;13.10;99.90;;;12.29;100.00;98449.41;5439493;26;1112;-70
2024/04/14 04:52:03;;;;;;;;;;;13.10;99.90;;;12.30;100.00;98451.13;5426955;26;3748;-70
2024/04/14 04:54:30;;;;;;;;;;;13.20;99.90;;;12.23;100.00;98447.03;5429125;26;1497;-70
2024/04/14 04:56:57;;;;;;;;;;;13.10;99.90;;;12.24;100.00;98446.97;5432108;26;1838;-70
2024/04/14 04:59:24;;;;;;;;;;;13.10;99.90;;;12.32;100.00;98451.94;5430201;26;1375;-70
2024/04/14 05:01:51;;;;;;;;;;;13.20;99.90;;;12.27;100.00;98446.88;5435581;26;1306;-70
2024/04/14 05:04:18;;;;;;;;;;;13.10;99.90;;;12.22;100.00;98453.13;5433894;26;1282;-70
2024/04/14 05:06:45;;;;;;;;;;;13.10;99.90;;;12.22;100.00;98458.34;5456145;26;2667;-70
2024/04/14 05:09:11;;;;;;;;;;;13.10;99.90;;;12.25;100.00;98463.47;5424015;26;2829;-70
2024/04/14 05:11:38;;;;;;;;;;;13.10;99.90;;;12.30;100.00;98461.53;5426254;26;1630;-70
2024/04/14 05:14:06;;;;;;;;;;;13.20;99.90;;;12.38;100.00;98458.66;5432553;26;1347;-70
2024/04/14 05:16:32;;;;;;;;;;;13.20;99.90;;;12.29;100.00;98465.91;5430794;26;1872;-70
2024/04/14 05:18:59;;;;;;;;;;;13.20;99.90;;;12.30;100.00;98464.13;5432082;26;1475;-70
2024/04/14 05:21:27;;;;;;;;;;;13.10;99.90;;;12.30;100.00;98458.94;5437123;26;2293;-70
2024/04/14 05:23:54;;;;;;;;;;;13.10;99.90;;;12.40;100.00;98469.88;5429483;26;1352;-68
2024/04/14 05:26:20;;;;;;;;;;;13.00;99.90;;;12.42;100.00;98468.91;5436957;26;1371;-70
2024/04/14 05:28:47;;;;;;;;;;;12.90;99.90;;;12.45;100.00;98467.94;5433223;26;1421;-70
2024/04/14 05:31:14;;;;;;;;;;;13.00;99.90;;;12.46;100.00;98473.09;5437852;26;1409;-70
2024/04/14 05:33:41;;;;;;;;;;;12.90;99.90;;;12.47;100.00;98472.19;5434935;26;1425;-70
2024/04/14 05:36:08;;;;;;;;;;;12.90;99.90;;;12.42;100.00;98481.91;5437952;26;3716;-70
2024/04/14 05:38:35;;;;;;;;;;;13.00;99.90;;;12.46;100.00;98483.53;5434123;26;1885;-70
2024/04/14 05:41:02;;;;;;;;;;;13.00;99.90;;;12.50;100.00;98479.91;5431088;26;1419;-70
2024/04/14 05:43:29;;;;;;;;;;;13.00;99.90;;;12.52;100.00;98478.09;5434051;26;1502;-70
2024/04/14 05:45:56;;;;;;;;;;;13.10;99.90;;;12.64;100.00;98488.97;5429791;26;1590;-70
2024/04/14 05:48:24;;;;;;;;;;;13.10;99.90;;;12.68;100.00;98488.81;5436949;26;2165;-70
2024/04/14 05:50:50;;;;;;;;;;;13.20;99.90;;;12.67;100.00;98481.03;5431385;26;1381;-70
2024/04/14 05:53:17;;;;;;;;;;;13.30;99.90;;;12.84;100.00;98483.00;5434183;26;1471;-70
2024/04/14 05:55:44;;;;;;;;;;;13.30;99.90;;;12.90;100.00;98480.19;5438779;26;1424;-70
2024/04/14 05:58:13;;;;;;;;;;;13.30;99.90;;;12.93;100.00;98480.94;5438326;26;1888;-70
2024/04/14 06:00:39;;;;;;;;;;;13.50;99.90;;;13.07;100.00;98479.53;5430242;26;1456;-70
2024/04/14 06:03:07;;;;;;;;;;;13.50;99.90;;;13.09;100.00;98478.59;5432102;26;2310;-70
2024/04/14 06:05:34;;;;;;;;;;;13.60;99.90;;;13.18;100.00;98480.84;5440067;26;1364;-70
2024/04/14 06:08:01;;;;;;;;;;;13.70;99.90;;;13.25;100.00;98471.03;5430197;26;1388;-70
2024/04/14 06:10:28;;;;;;;;;;;13.70;99.90;;;13.35;100.00;98463.72;5436165;26;1528;-67
2024/04/14 06:12:55;;;;;;;;;;;13.90;99.90;;;13.46;100.00;98455.47;5426453;26;1506;-70
2024/04/14 06:15:22;;;;;;;;;;;13.90;99.90;;;13.40;100.00;98451.34;5435603;26;1483;-70
2024/04/14 06:17:49;;;;;;;;;;;14.00;99.90;;;13.48;100.00;98458.84;5431762;26;1892;-70
2024/04/14 06:20:16;;;;;;;;;;;14.00;99.90;;;13.57;100.00;98458.47;5429211;26;4203;-70
2024/04/14 06:22:42;;;;;;;;;;;14.00;99.90;;;13.68;100.00;98458.88;5430237;26;1378;-70
2024/04/14 06:25:09;;;;;;;;;;;14.10;99.90;;;13.80;100.00;98447.13;5434828;26;2808;-70
2024/04/14 06:27:36;;;;;;;;;;;14.20;99.90;;;13.81;100.00;98451.41;5432805;26;1335;-70
2024/04/14 06:30:03;;;;;;;;;;;14.30;99.90;;;13.95;100.00;98454.28;5431744;26;2808;-70
2024/04/14 06:32:30;;;;;;;;;;;14.40;99.90;;;14.09;100.00;98440.63;5428566;26;1490;-70
2024/04/14 06:34:57;;;;;;;;;;;14.50;99.90;;;14.18;100.00;98442.84;5426721;26;1569;-70
2024/04/14 06:37:24;;;;;;;;;;;14.60;99.90;;;14.53;100.00;98429.16;5434576;26;1894;-70
2024/04/14 06:39:51;;;;;;;;;;;14.80;99.90;;;14.51;100.00;98423.16;5434027;26;1394;-70
2024/04/14 06:42:18;;;;;;;;;;;14.90;99.90;;;14.37;100.00;98419.41;5425637;26;2138;-70
2024/04/14 06:44:45;;;;;;;;;;;14.90;99.90;;;14.55;100.00;98423.00;5426069;26;1475;-70
2024/04/14 06:47:12;;;;;;;;;;;15.00;99.90;;;14.69;100.00;98422.38;5429892;26;1483;-70
2024/04/14 06:49:39;;;;;;;;;;;15.20;99.90;;;14.66;100.00;98430.31;5431901;26;1395;-70
2024/04/14 06:52:06;;;;;;;;;;;15.20;99.90;;;14.78;100.00;98424.56;5433754;26;1372;-70
2024/04/14 06:54:33;;;;;;;;;;;15.30;99.90;;;14.78;100.00;98419.34;5432335;26;1542;-70
2024/04/14 06:57:00;;;;;;;;;;;15.30;99.90;;;15.15;100.00;98409.75;5433647;26;1837;-70
2024/04/14 06:59:27;;;;;;;;;;;15.40;99.90;;;15.29;100.00;98403.84;5429031;26;1491;-70
2024/04/14 07:01:53;;;;;;;;;;;15.60;99.90;;;15.32;100.00;98395.84;5431173;26;4366;-70
2024/04/14 07:04:21;;;;;;;;;;;15.70;99.90;;;15.31;100.00;98393.31;5430428;26;1403;-70
2024/04/14 07:06:48;;;;;;;;;;;15.70;99.90;;;15.32;100.00;98387.16;5432389;26;1331;-70
2024/04/14 07:09:15;;;;;;;;;;;15.80;99.90;;;15.62;100.00;98390.03;5431992;26;2033;-70
2024/04/14 07:11:42;;;;;;;;;;;15.90;99.90;;;15.78;100.00;98377.91;5429886;26;1355;-70
2024/04/14 07:14:09;;;;;;;;;;;16.10;99.90;;;15.90;100.00;98379.06;5428544;26;1467;-70
2024/04/14 07:16:36;;;;;;;;;;;16.20;99.90;;;16.18;100.00;98362.72;5431700;26;1460;-70
2024/04/14 07:19:03;;;;;;;;;;;16.20;99.90;;;16.26;100.00;98370.19;5433601;26;1845;-70
2024/04/14 07:21:30;;;;;;;;;;;16.40;99.90;;;16.03;100.00;98368.78;5437445;26;1383;-70
2024/04/14 07:23:57;;;;;;;;;;;16.60;99.90;;;16.14;100.00;98360.34;5431046;26;1473;-70
2024/04/14 07:26:24;;;;;;;;;;;16.70;99.90;;;15.98;100.00;98352.47;5422053;26;1290;-70
2024/04/14 07:28:51;;;;;;;;;;;16.70;99.90;;;16.12;100.00;98365.66;5430742;26;2658;-70
2024/04/14 07:31:18;;;;;;;;;;;16.60;99.90;;;16.28;100.00;98363.97;5425356;26;1431;-70
2024/04/14 07:33:48;;;;;;;;;;;16.60;99.90;;;16.75;100.00;98346.56;5425623;26;1071;-70
2024/04/14 07:36:15;;;;;;;;;;;;;;;16.84;100.00;98338.22;5426571;26;1247;-69
2024/04/14 07:38:42;;;;;;;;;;;17.00;99.90;;;17.01;100.00;98328.56;5427450;26;1874;-70
2024/04/14 07:41:08;;;;;;;;;;;17.30;99.90;;;17.26;100.00;98320.97;5435853;26;3813;-70
2024/04/14 07:43:35;;;;;;;;;;;17.40;99.90;;;17.47;100.00;98320.63;5425116;26;2710;-70
2024/04/14 07:46:02;;;;;;;;;;;17.40;99.90;;;17.48;100.00;98298.72;5440553;26;1366;-70
2024/04/14 07:48:29;;;;;;;;;;;17.50;99.90;;;17.23;100.00;98305.41;5432855;26;1087;-70
2024/04/14 07:50:56;;;;;;;;;;;17.60;99.90;;;17.23;100.00;98308.03;5442716;26;1229;-70
2024/04/14 07:53:23;;;;;;;;;;;17.40;99.90;;;17.11;100.00;98293.84;5433993;26;1565;-70
2024/04/14 07:55:54;;;;;;;;;;;17.40;99.90;;;17.12;100.00;98297.31;5427733;26;2293;-70
2024/04/14 07:58:21;;;;;;;;;;;17.30;99.90;;;17.34;100.00;98289.88;5427604;26;2576;-70
2024/04/14 08:00:48;;;;;;;;;;;17.40;99.90;;;17.22;100.00;98282.75;5432375;26;1315;-70
2024/04/14 08:03:16;;;;;;;;;;;17.70;99.90;;;17.66;100.00;98270.53;5431394;26;1218;-71
2024/04/14 08:05:43;;;;;;;;;;;17.90;99.90;;;17.77;100.00;98263.69;5426843;26;1365;-70
2024/04/14 08:08:10;;;;;;;;;;;18.10;99.90;;;18.11;100.00;98253.78;5425781;26;1100;-71
2024/04/14 08:10:37;;;;;;;;;;;18.20;99.90;;;18.18;100.00;98241.94;5431003;26;1581;-69
2024/04/14 08:13:04;;;;;;;;;;;18.40;99.90;;;18.10;100.00;98230.22;5428304;26;2497;-71
2024/04/14 08:15:31;;;;;;;;;;;18.40;99.90;;;18.57;100.00;98228.97;5432360;26;1356;-71
2024/04/14 08:17:58;;;;;;;;;;;18.50;99.90;;;18.51;100.00;98205.69;5426526;26;1837;-71
2024/04/14 08:20:25;;;;;;;;;;;18.40;99.90;;;18.64;100.00;98197.88;5433412;26;1361;-71
2024/04/14 08:22:52;;;;;;;;;;;18.60;99.90;;;19.31;100.00;98197.78;5443720;26;1391;-70
2024/04/14 08:25:19;;;;;;;;;;;18.80;99.90;;;19.48;100.00;98194.84;5428461;26;4104;-68
2024/04/14 08:27:46;;;;;;;;;;;19.20;99.90;;;19.60;100.00;98190.53;5433955;26;2726;-70
2024/04/14 08:30:13;;;;;;;;;;;19.40;99.90;;;19.73;100.00;98187.88;5429107;26;1360;-70
2024/04/14 08:32:40;;;;;;;;;;;19.60;99.90;;;19.47;100.00;98179.16;5435727;26;1327;-68
2024/04/14 08:35:07;;;;;;;;;;;19.70;99.90;;;19.65;100.00;98159.44;5437688;26;1252;-70
2024/04/14 08:37:34;;;;;;;;;;;19.70;99.90;;;19.32;100.00;98160.00;5429419;26;1849;-70
2024/04/14 08:40:01;;;;;;;;;;;19.60;99.90;;;19.44;100.00;98164.41;5425714;26;1389;-70
2024/04/14 08:42:29;;;;;;;;;;;19.90;99.90;;;19.72;100.00;98162.50;5435469;26;2697;-70
2024/04/14 08:44:58;;;;;;;;;;;20.20;99.90;;;20.29;100.00;98158.44;5430416;26;1976;-70
2024/04/14 08:47:26;;;;;;;;;;;20.50;99.90;;;20.31;100.00;98156.53;5441083;26;1348;-70
2024/04/14 08:49:53;;;;;;;;;;;20.50;99.90;;;20.16;100.00;98153.22;5398417;26;1187;-70
2024/04/14 08:52:22;;;;;;;;;;;20.60;99.90;;;19.70;100.00;98143.34;5427742;26;1568;-70
2024/04/14 08:54:49;;;;;;;;;;;20.60;99.90;;;20.00;100.00;98141.16;5425754;26;2381;-70
2024/04/14 08:57:16;;;;;;;;;;;20.50;99.90;;;20.15;100.00;98154.19;5434284;26;1633;-70
2024/04/14 08:59:45;;;;;;;;;;;20.60;99.90;;;20.57;100.00;98147.59;5436067;26;1954;-70
2024/04/14 09:02:12;;;;;;;;;;;21.00;99.90;;;20.55;100.00;98138.91;5433580;26;1598;-69
2024/04/14 09:04:39;;;;;;;;;;;21.20;99.90;;;20.57;100.00;98144.94;5435445;26;1425;-70
2024/04/14 09:07:06;;;;;;;;;;;21.00;99.90;;;20.11;100.00;98136.91;5431800;26;3664;-70
2024/04/14 09:09:33;;;;;;;;;;;20.80;99.90;;;20.52;100.00;98144.41;5433976;26;2694;-70
2024/04/14 09:12:00;;;;;;;;;;;20.50;99.90;;;20.66;100.00;98146.91;5424009;26;2092;-70
2024/04/14 09:14:27;;;;;;;;;;;20.80;99.90;;;20.81;100.00;98131.69;5426640;26;1657;-70
2024/04/14 09:16:54;;;;;;;;;;;21.10;99.90;;;21.21;100.00;98130.44;5432588;26;1416;-70
2024/04/14 09:19:21;;;;;;;;;;;21.30;99.90;;;21.23;100.00;98132.03;5432750;26;1889;-70
2024/04/14 09:21:49;;;;;;;;;;;21.60;99.90;;;21.38;100.00;98111.50;5430840;26;1356;-70
2024/04/14 09:24:16;;;;;;;;;;;21.50;99.90;;;21.02;100.00;98126.56;5431178;26;2044;-70
2024/04/14 09:26:44;;;;;;;;;;;21.20;99.90;;;21.25;100.00;98124.81;5430234;26;1384;-70
2024/04/14 09:29:10;;;;;;;;;;;21.30;99.90;;;21.43;100.00;98119.94;5432969;26;1366;-70
2024/04/14 09:31:37;;;;;;;;;;;21.40;99.90;;;21.83;100.00;98102.75;5427498;26;1325;-69
2024/04/14 09:34:05;;;;;;;;;;;21.50;99.90;;;21.95;100.00;98116.75;5430437;26;1422;-70
2024/04/14 09:36:32;;;;;;;;;;;22.10;99.90;;;21.38;100.00;98114.13;5432954;26;2223;-70
2024/04/14 09:39:02;;;;;;;;;;;21.80;99.90;;;21.78;100.00;98108.38;5431100;26;1878;-70
2024/04/14 09:41:28;;;;;;;;;;;21.60;99.90;;;21.49;100.00;98121.25;5432339;26;1240;-70
2024/04/14 09:43:55;;;;;;;;;;;21.70;99.90;;;21.40;100.00;98119.31;5430630;26;1300;-69
2024/04/14 09:46:23;;;;;;;;;;;21.70;99.90;;;21.88;100.00;98119.06;5429525;26;1294;-70
2024/04/14 09:48:50;;;;;;;;;;;21.80;99.90;;;21.15;100.00;98123.03;5424244;26;1260;-70
2024/04/14 09:51:17;;;;;;;;;;;21.80;99.90;;;21.44;100.00;98134.81;5434685;26;3625;-70
2024/04/14 09:53:45;;;;;;;;;;;21.70;99.90;;;22.12;100.00;98113.56;5434815;26;1394;-70
2024/04/14 09:56:12;;;;;;;;;;;22.10;99.90;;;22.44;100.00;98118.06;5432138;26;1269;-71
2024/04/14 09:58:39;;;;;;;;;;;22.20;99.90;;;22.87;100.00;98101.25;5433106;26;1896;-70
2024/04/14 10:01:09;;;;;;;;;;;22.30;99.90;;;22.24;100.00;98106.50;5430823;26;1300;-70
2024/04/14 10:03:37;;;;;;;;;;;22.00;99.90;;;21.77;100.00;98111.97;5432678;26;1375;-70
2024/04/14 10:06:04;;;;;;;;;;;22.10;99.90;;;21.77;100.00;98104.06;5432874;26;2118;-70
2024/04/14 10:08:33;;;;;;;;;;;21.90;99.90;;;21.91;100.00;98116.16;5430111;26;1454;-70
2024/04/14 10:11:04;;;;;;;;;;;22.10;99.90;;;22.12;100.00;98103.00;5434862;26;1252;-69
2024/04/14 10:13:51;;;;;;;;;;;22.50;99.90;;;21.62;100.00;98107.91;5426070;26;1349;-70
2024/04/14 10:16:18;;;;;;;;;;;22.40;99.90;;;22.22;100.00;98101.31;5435472;26;1359;-70
2024/04/14 10:18:47;;;;;;;;;;;22.20;99.90;;;22.53;100.00;98099.66;5428693;26;2371;-68
2024/04/14 10:21:19;;;;;;;;;;;22.60;99.90;;;22.64;100.00;98096.06;5428973;26;1196;-70
2024/04/14 10:23:52;;;;;;;;;;;22.40;99.90;;;22.52;100.00;98087.38;5429012;26;1225;-70
2024/04/14 10:26:19;;;;;;;;;;;22.20;99.90;;;21.33;100.00;98097.00;5426960;26;1443;-70
2024/04/14 10:28:51;;;;;;;;;;;22.10;99.90;;;22.61;100.00;98082.28;5425865;26;1395;-70
2024/04/14 10:31:33;;;;;;;;;;;22.10;99.90;;;22.03;100.00;98078.19;5435330;26;1457;-70
2024/04/14 10:34:06;;;;;;;;;;;22.00;99.90;;;22.47;100.00;98084.28;5426002;26;3835;-70
2024/04/14 10:36:35;;;;;;;;;;;21.90;99.90;;;22.84;100.00;98075.88;5432641;26;1431;-70
2024/04/14 10:39:04;;;;;;;;;;;21.90;99.90;;;22.82;100.00;98058.44;5434776;26;1849;-70
2024/04/14 10:41:31;;;;;;;;;;;22.20;99.90;;;22.57;100.00;98062.34;5431436;26;1275;-70
2024/04/14 10:43:58;;;;;;;;;;;22.40;99.90;;;22.28;100.00;98092.03;5424732;26;1292;-69
2024/04/14 10:46:25;;;;;;;;;;;22.10;99.90;;;22.53;100.00;98070.53;5429509;26;1593;-70
2024/04/14 10:48:54;;;;;;;;;;;21.90;99.90;;;22.26;100.00;98064.88;5428283;26;1337;-70
2024/04/14 10:51:22;;;;;;;;;;;22.00;99.90;;;23.15;100.00;98060.06;5426779;26;1441;-69
2024/04/14 10:53:52;;;;;;;;;;;22.10;99.90;;;23.21;100.00;98040.97;5434247;26;1241;-70
2024/04/14 10:56:19;;;;;;;;;;;22.30;99.90;;;23.64;100.00;98046.97;5431761;26;1529;-69
2024/04/14 10:58:46;;;;;;;;;;;22.80;99.90;;;23.44;100.00;98025.69;5427016;26;1888;-70
2024/04/14 11:01:13;;;;;;;;;;;23.20;99.90;;;22.75;100.00;98036.97;5434741;26;2256;-70
2024/04/14 11:03:40;;;;;;;;;;;23.30;99.90;;;22.92;100.00;98041.66;5405852;26;1324;-70
2024/04/14 11:06:08;;;;;;;;;;;23.20;99.90;;;23.54;100.00;98009.84;5430944;26;2282;-70
2024/04/14 11:08:35;;;;;;;;;;;22.90;99.90;;;22.93;100.00;98030.09;5433180;26;1446;-70
2024/04/14 11:11:02;;;;;;;;;;;23.00;99.90;;;23.17;100.00;98023.66;5432492;26;2800;-70
2024/04/14 11:13:29;;;;;;;;;;;23.00;99.90;;;22.28;100.00;98057.66;5427397;26;1979;-69
2024/04/14 11:15:59;;;;;;;;;;;22.60;99.90;;;22.54;100.00;98053.69;5434940;26;1379;-70
2024/04/14 11:18:28;;;;;;;;;;;22.20;99.90;;;22.30;100.00;98027.47;5432605;26;1887;-70